Time;durP1;ratioP1;P1;durP2;ratioP2;P2;SDS_P1;SDS_P2;PMS_P1;PMS_P2;Temp;Humidity;BMP_temperature;BMP_pressure;BME280_temperature;BME280_humidity;BME280_pressure;Samples;Min_cycle;Max_cycle;Signal;HPM_P1;HPM_P2
2022/01/19 00:01:25;;;;;;;4.68;4.25;;;3.30;74.10;;;;;;5056844;28;20052;-80
2022/01/19 00:03:52;;;;;;;6.28;4.85;;;3.30;74.40;;;;;;5074419;28;20055;-83
2022/01/19 00:06:22;;;;;;;7.60;5.03;;;3.40;74.50;;;;;;5074264;28;20068;-84
2022/01/19 00:08:51;;;;;;;9.23;4.95;;;3.30;74.90;;;;;;5057037;28;20415;-85
2022/01/19 00:14:16;;;;;;;6.88;5.03;;;3.50;74.60;;;;;;5044572;28;20059;-81
2022/01/19 00:16:46;;;;;;;5.93;5.28;;;3.40;75.00;;;;;;5075228;28;20055;-85
2022/01/19 00:19:13;;;;;;;8.10;4.93;;;3.40;75.40;;;;;;5040920;28;20033;-85
2022/01/19 00:21:41;;;;;;;8.40;4.95;;;3.60;75.20;;;;;;5057016;28;20060;-84
2022/01/19 00:24:08;;;;;;;7.07;4.50;;;3.60;75.20;;;;;;5074465;28;20041;-82
2022/01/19 00:26:36;;;;;;;6.00;4.60;;;3.50;75.20;;;;;;5074281;28;20114;-83
2022/01/19 00:29:03;;;;;;;5.13;4.32;;;3.40;75.50;;;;;;5056340;28;20035;-84
2022/01/19 00:31:31;;;;;;;8.75;4.45;;;3.40;76.00;;;;;;5040073;28;20419;-85
2022/01/19 00:34:09;;;;;;;8.32;4.75;;;3.50;76.20;;;;;;5072975;28;20041;-85
2022/01/19 00:36:40;;;;;;;6.25;4.43;;;3.50;76.00;;;;;;5072670;28;20569;-83
2022/01/19 00:39:07;;;;;;;8.38;4.82;;;3.40;76.50;;;;;;5074192;28;20044;-84
2022/01/19 00:41:35;;;;;;;6.05;4.40;;;3.50;76.60;;;;;;5073912;28;20044;-83
2022/01/19 00:44:02;;;;;;;6.00;4.95;;;3.50;76.70;;;;;;5093133;28;20155;-82
2022/01/19 00:46:30;;;;;;;8.32;4.78;;;3.40;77.00;;;;;;5075815;28;20052;-83
2022/01/19 00:48:57;;;;;;;6.65;4.57;;;3.50;77.10;;;;;;5076062;28;20135;-83
2022/01/19 00:51:24;;;;;;;5.63;4.32;;;3.40;77.40;;;;;;5059557;28;20051;-86
2022/01/19 00:53:52;;;;;;;8.73;4.80;;;3.40;77.80;;;;;;5074914;28;20036;-83
2022/01/19 00:56:19;;;;;;;6.97;5.75;;;3.30;78.40;;;;;;5075664;28;20113;-81
2022/01/19 00:58:47;;;;;;;7.10;4.72;;;3.30;78.20;;;;;;5093824;28;20040;-82
2022/01/19 01:01:15;;;;;;;6.10;4.63;;;3.40;78.40;;;;;;5075431;28;20606;-82
2022/01/19 01:03:43;;;;;;;7.57;4.72;;;3.40;78.30;;;;;;5075756;28;20040;-82
2022/01/19 01:06:11;;;;;;;6.22;4.95;;;3.40;78.30;;;;;;5075798;28;20048;-83
2022/01/19 01:08:38;;;;;;;9.15;4.78;;;3.50;78.20;;;;;;5093292;28;20043;-84
2022/01/19 01:11:05;;;;;;;7.47;4.90;;;3.40;78.40;;;;;;5075320;28;20512;-83
2022/01/19 01:18:59;;;;;;;12.32;5.32;;;3.30;79.00;;;;;;5075482;28;20062;-82
2022/01/19 01:21:27;;;;;;;5.13;4.60;;;3.30;79.00;;;;;;5093489;28;20129;-80
2022/01/19 01:23:54;;;;;;;7.47;5.00;;;3.30;79.20;;;;;;5093241;28;20040;-81
2022/01/19 01:26:22;;;;;;;8.80;4.80;;;3.30;79.40;;;;;;5075155;28;20059;-80
2022/01/19 01:28:49;;;;;;;9.20;5.07;;;3.30;79.50;;;;;;5093132;28;20068;-83
2022/01/19 01:31:17;;;;;;;8.43;5.53;;;3.30;80.00;;;;;;5074957;28;20048;-80
2022/01/19 01:33:44;;;;;;;7.43;5.00;;;3.30;80.10;;;;;;5093148;28;20048;-83
2022/01/19 01:36:12;;;;;;;9.43;4.93;;;3.30;80.30;;;;;;5074867;28;20138;-83
2022/01/19 01:38:39;;;;;;;9.13;5.13;;;3.40;81.00;;;;;;5075115;28;20059;-83
2022/01/19 01:41:12;;;;;;;10.02;5.53;;;3.40;79.90;;;;;;5075077;28;20130;-81
2022/01/19 01:43:45;;;;;;;8.32;5.18;;;3.40;80.60;;;;;;5058257;28;20284;-82
2022/01/19 01:49:15;;;;;;;7.03;4.80;;;3.10;81.50;;;;;;5062001;28;20131;-82
2022/01/19 01:54:29;;;;;;;6.43;5.28;;;3.00;82.00;;;;;;5074645;28;20040;-82
2022/01/19 01:56:56;;;;;;;7.50;5.22;;;3.00;82.30;;;;;;5092471;28;20102;-82
2022/01/19 01:59:24;;;;;;;8.70;5.65;;;3.00;82.50;;;;;;5092605;28;20040;-84
2022/01/19 02:01:51;;;;;;;6.60;5.20;;;3.00;82.40;;;;;;5092745;28;20487;-79
2022/01/19 02:04:23;;;;;;;10.57;5.00;;;3.00;82.50;;;;;;5092799;28;20036;-80
2022/01/19 02:09:38;;;;;;;12.43;5.55;;;3.00;82.70;;;;;;5074407;28;20055;-82
2022/01/19 02:23:25;;;;;;;7.72;5.00;;;2.80;84.40;;;;;;5074290;28;20396;-82
2022/01/19 02:25:58;;;;;;;8.02;5.22;;;2.80;85.20;;;;;;5074383;28;20042;-79
2022/01/19 02:42:40;;;;;;;6.30;5.45;;;2.80;86.60;;;;;;5074056;28;20052;-77
2022/01/19 02:50:30;;;;;;;6.72;5.30;;;2.90;87.10;;;;;;5073956;28;20097;-83
2022/01/19 02:52:58;;;;;;;7.28;5.38;;;2.90;87.00;;;;;;5074050;28;20064;-83
2022/01/19 02:55:25;;;;;;;7.55;5.38;;;2.90;87.60;;;;;;5057543;28;20046;-82
2022/01/19 02:57:52;;;;;;;6.70;5.28;;;3.00;86.90;;;;;;5057101;28;20140;-83
2022/01/19 03:08:46;;;;;;;6.72;5.63;;;2.80;89.00;;;;;;5091700;28;20037;-82
2022/01/19 03:11:20;;;;;;;10.70;5.30;;;2.70;89.00;;;;;;5091756;28;20044;-82
2022/01/19 03:13:48;;;;;;;11.00;6.20;;;2.60;89.50;;;;;;5057318;28;20052;-81
2022/01/19 03:16:20;;;;;;;9.85;5.25;;;2.60;90.10;;;;;;5073771;28;20054;-83
2022/01/19 03:18:49;;;;;;;10.95;5.72;;;2.60;90.30;;;;;;5077640;28;20136;-83
2022/01/19 03:21:19;;;;;;;7.07;5.28;;;2.50;90.50;;;;;;5061426;28;20086;-81
2022/01/19 03:24:37;;;;;;;7.50;5.63;;;2.60;90.40;;;;;;5061201;28;20048;-83
2022/01/19 03:32:17;;;;;;;9.85;5.88;;;2.60;90.80;;;;;;4935311;29;20059;-84
2022/01/19 03:35:11;;;;;;;10.98;5.57;;;2.40;91.20;;;;;;4916334;29;20142;-83
2022/01/19 03:37:39;;;;;;;10.48;6.68;;;2.50;91.10;;;;;;5012178;28;20181;-83
2022/01/19 03:40:08;;;;;;;8.77;5.07;;;2.40;91.40;;;;;;5032827;28;20038;-83
2022/01/19 03:42:36;;;;;;;10.77;5.30;;;2.30;91.70;;;;;;5016709;28;20291;-83
2022/01/19 03:45:06;;;;;;;11.38;5.60;;;2.30;92.00;;;;;;5000002;28;20188;-82
2022/01/19 03:47:42;;;;;;;8.68;5.20;;;2.50;92.00;;;;;;5015899;28;20045;-83
2022/01/19 03:50:10;;;;;;;10.95;6.00;;;2.70;91.80;;;;;;4999857;28;20063;-82
2022/01/19 03:52:37;;;;;;;13.88;6.32;;;2.70;92.10;;;;;;5016159;28;20041;-83
2022/01/19 03:55:06;;;;;;;8.82;6.55;;;2.50;93.10;;;;;;5032172;28;20081;-82
2022/01/19 03:57:33;;;;;;;9.95;6.30;;;2.60;93.50;;;;;;5007619;28;20049;-82
2022/01/19 04:00:01;;;;;;;12.18;7.20;;;2.30;93.80;;;;;;5036026;28;20045;-81
2022/01/19 04:02:28;;;;;;;10.48;7.28;;;2.10;95.00;;;;;;5056715;28;20052;-81
2022/01/19 04:05:41;;;;;;;11.07;7.28;;;2.20;95.30;;;;;;5056688;28;20051;-82
2022/01/19 04:07:46;;;;;;;11.10;7.97;;;2.20;95.70;;;;;;5048813;28;20059;-82
2022/01/19 04:10:13;;;;;;;16.25;8.20;;;1.80;97.90;;;;;;5056318;28;20052;-82
2022/01/19 04:15:12;;;;;;;11.63;6.82;;;1.70;99.90;;;;;;5056617;28;20147;-84
2022/01/19 04:17:46;;;;;;;11.90;8.13;;;1.50;99.90;;;;;;5074241;28;20097;-83
2022/01/19 04:20:14;;;;;;;23.55;8.00;;;1.60;99.90;;;;;;5039763;28;20053;-82
2022/01/19 04:22:42;;;;;;;12.13;8.05;;;1.50;99.90;;;;;;5056635;28;20124;-82
2022/01/19 04:25:13;;;;;;;11.45;8.55;;;1.50;99.90;;;;;;5056413;28;20101;-83
2022/01/19 04:27:42;;;;;;;12.95;8.52;;;1.40;99.90;;;;;;5056026;28;20063;-83
2022/01/19 04:30:13;;;;;;;12.60;6.40;;;1.40;99.90;;;;;;5056090;28;20068;-83
2022/01/19 04:32:51;;;;;;;10.40;6.72;;;1.50;99.90;;;;;;5074245;28;20377;-82
2022/01/19 04:35:24;;;;;;;13.68;8.32;;;1.60;99.90;;;;;;5039577;28;20056;-83
2022/01/19 04:49:10;;;;;;;11.57;7.32;;;1.20;99.90;;;;;;5055943;28;20047;-83
2022/01/19 05:05:16;;;;;;;17.77;9.60;;;1.20;99.90;;;;;;5075664;28;20044;-83
2022/01/19 05:15:39;;;;;;;10.88;7.45;;;1.30;99.90;;;;;;5075742;28;20068;-82
2022/01/19 05:18:08;;;;;;;10.40;7.40;;;1.30;99.90;;;;;;5058668;28;20138;-83
2022/01/19 05:20:35;;;;;;;12.02;8.13;;;1.30;99.90;;;;;;5059101;28;20044;-83
2022/01/19 05:23:03;;;;;;;13.10;8.50;;;1.30;99.90;;;;;;5075443;28;20048;-83
2022/01/19 05:25:32;;;;;;;11.63;7.95;;;1.30;99.90;;;;;;5075410;28;20109;-84
2022/01/19 05:27:59;;;;;;;12.73;8.13;;;1.30;99.90;;;;;;5058560;28;20464;-84
2022/01/19 05:30:28;;;;;;;11.65;7.85;;;1.20;99.90;;;;;;5059234;28;20135;-83
2022/01/19 05:32:55;;;;;;;9.23;7.32;;;1.20;99.90;;;;;;5058792;28;20345;-83
2022/01/19 05:35:24;;;;;;;12.00;6.82;;;1.40;99.90;;;;;;5075379;28;20058;-83
2022/01/19 05:37:52;;;;;;;11.73;6.20;;;1.50;99.90;;;;;;5075513;28;20051;-83
2022/01/19 05:40:20;;;;;;;9.10;7.47;;;1.50;99.90;;;;;;5092577;28;20036;-83
2022/01/19 05:42:50;;;;;;;14.40;7.50;;;1.50;99.90;;;;;;5058835;28;20134;-82
2022/01/19 05:45:18;;;;;;;;;;;1.60;99.90;;;;;;5071782;28;20373;-83
2022/01/19 05:47:46;;;;;;;12.52;7.22;;;1.40;99.90;;;;;;5038693;28;19920;-83
2022/01/19 05:50:36;;;;;;;10.70;7.95;;;1.20;99.90;;;;;;5042078;28;20029;-83
2022/01/19 05:53:03;;;;;;;10.20;7.65;;;0.90;99.90;;;;;;5054577;28;20367;-83
2022/01/19 05:55:31;;;;;;;11.20;7.57;;;1.00;99.90;;;;;;5054952;28;20439;-84
2022/01/19 05:57:58;;;;;;;9.88;7.40;;;1.10;99.90;;;;;;5054677;28;20070;-83
2022/01/19 06:00:29;;;;;;;12.35;8.10;;;1.10;99.90;;;;;;5038631;28;20045;-83
2022/01/19 06:02:56;;;;;;;13.43;8.30;;;1.20;99.90;;;;;;5054911;28;20052;-83
2022/01/19 06:05:24;;;;;;;11.88;8.45;;;0.90;99.90;;;;;;5072471;28;20436;-82
2022/01/19 06:23:45;;;;;;;11.40;9.05;;;0.70;99.90;;;;;;4996094;28;20040;-82
2022/01/19 06:26:12;;;;;;;15.50;9.18;;;0.80;99.90;;;;;;5034361;28;20055;-84
2022/01/19 06:28:45;;;;;;;14.55;9.10;;;0.90;99.90;;;;;;5034302;28;20049;-83
2022/01/19 06:31:14;;;;;;;10.90;8.68;;;0.90;99.90;;;;;;5052332;28;20037;-83
2022/01/19 06:33:44;;;;;;;12.88;9.25;;;1.00;99.90;;;;;;5052069;28;20044;-83
2022/01/19 06:36:11;;;;;;;12.73;8.95;;;0.80;99.90;;;;;;5034248;28;20044;-83
2022/01/19 06:38:39;;;;;;;14.18;8.73;;;0.60;99.90;;;;;;5017493;28;20131;-83
2022/01/19 06:41:06;;;;;;;18.38;10.18;;;0.50;99.90;;;;;;5018023;28;20041;-84
2022/01/19 06:43:34;;;;;;;20.60;11.13;;;0.40;99.90;;;;;;5017762;28;20053;-84
2022/01/19 06:46:02;;;;;;;19.77;11.85;;;0.40;99.90;;;;;;5034245;28;20392;-83
2022/01/19 06:48:35;;;;;;;18.92;10.48;;;0.40;99.90;;;;;;5017985;28;20045;-84
2022/01/19 06:51:03;;;;;;;15.30;10.18;;;0.40;99.90;;;;;;5034569;28;20052;-83
2022/01/19 06:53:30;;;;;;;19.63;10.50;;;0.40;99.90;;;;;;5037425;28;20049;-80
2022/01/19 06:55:57;;;;;;;15.73;9.68;;;0.40;99.90;;;;;;5021944;28;20453;-83
2022/01/19 06:58:26;;;;;;;16.08;9.32;;;0.50;99.90;;;;;;5038102;28;20453;-84
2022/01/19 07:00:55;;;;;;;23.67;9.75;;;0.60;99.90;;;;;;5021967;28;20052;-83
2022/01/19 07:03:24;;;;;;;13.35;9.27;;;0.90;99.90;;;;;;5038229;28;20080;-83
2022/01/19 07:05:52;;;;;;;20.13;10.07;;;1.00;99.90;;;;;;5038265;28;20041;-85
2022/01/19 07:08:19;;;;;;;13.40;8.75;;;1.20;99.90;;;;;;5055758;28;20440;-84
2022/01/19 07:10:46;;;;;;;15.20;8.90;;;1.40;99.90;;;;;;5021414;28;20144;-85
2022/01/19 07:13:14;;;;;;;15.90;8.98;;;1.60;99.90;;;;;;5021092;28;20497;-82
2022/01/19 07:15:41;;;;;;;15.57;9.48;;;1.70;99.90;;;;;;5001827;28;20044;-83
2022/01/19 07:18:09;;;;;;;16.65;8.65;;;1.80;99.90;;;;;;5017445;28;20378;-85
2022/01/19 07:20:36;;;;;;;14.35;9.05;;;1.90;99.90;;;;;;5018021;28;20033;-81
2022/01/19 07:23:04;;;;;;;13.00;7.85;;;2.00;99.90;;;;;;5018123;28;20128;-82
2022/01/19 07:34:17;;;;;;;17.45;9.63;;;2.30;99.90;;;;;;4916767;29;20132;-83
2022/01/19 07:36:45;;;;;;;18.30;10.30;;;2.10;99.90;;;;;;4900921;29;20140;-82
2022/01/19 07:39:14;;;;;;;18.35;10.88;;;2.10;99.90;;;;;;4870252;29;20147;-83
2022/01/19 07:41:43;;;;;;;;;;;2.20;99.90;;;;;;4917324;29;20516;-83
2022/01/19 07:44:10;;;;;;;15.75;10.38;;;2.20;99.90;;;;;;4900755;29;19945;-83
2022/01/19 07:46:38;;;;;;;17.95;10.77;;;2.20;99.90;;;;;;4885340;29;20051;-84
2022/01/19 07:49:05;;;;;;;19.65;11.60;;;2.30;99.90;;;;;;4900947;29;20044;-82
2022/01/19 07:51:33;;;;;;;17.02;11.02;;;2.50;99.90;;;;;;4900913;29;20048;-83
2022/01/19 07:54:00;;;;;;;17.15;11.20;;;2.30;99.90;;;;;;4900786;29;20060;-84
2022/01/19 07:56:27;;;;;;;18.42;11.38;;;2.70;99.90;;;;;;4916597;29;20127;-83
2022/01/19 07:58:55;;;;;;;20.98;11.30;;;2.70;99.90;;;;;;4900590;29;20423;-84
2022/01/19 08:01:22;;;;;;;19.85;11.10;;;2.90;99.90;;;;;;4946290;28;20058;-87
2022/01/19 08:03:50;;;;;;;20.67;11.55;;;3.10;99.90;;;;;;4957117;28;20062;-83
2022/01/19 08:06:17;;;;;;;18.95;10.98;;;3.30;99.90;;;;;;4941424;28;20553;-84
2022/01/19 08:08:46;;;;;;;16.33;10.23;;;3.30;99.90;;;;;;4973346;28;20526;-82
2022/01/19 08:11:14;;;;;;;17.25;9.77;;;3.30;99.90;;;;;;4980033;28;20476;-85
2022/01/19 08:13:41;;;;;;;14.25;9.40;;;3.40;99.90;;;;;;5017015;28;20400;-83
2022/01/19 08:16:08;;;;;;;15.50;9.60;;;3.40;99.90;;;;;;5000262;28;20056;-84
2022/01/19 08:18:36;;;;;;;14.25;8.65;;;3.60;99.40;;;;;;5017036;28;20112;-85
2022/01/19 08:21:07;;;;;;;11.55;8.02;;;3.70;99.00;;;;;;5034543;28;20378;-84
2022/01/19 08:23:34;;;;;;;12.18;8.48;;;3.80;98.00;;;;;;5017159;28;20340;-84
2022/01/19 08:26:02;;;;;;;16.08;9.13;;;3.90;97.80;;;;;;5016722;28;20462;-84
2022/01/19 08:28:29;;;;;;;14.70;8.90;;;4.00;97.50;;;;;;5016865;28;20358;-84
2022/01/19 08:30:57;;;;;;;14.63;8.95;;;4.20;97.90;;;;;;5000474;28;20055;-84
2022/01/19 08:33:33;;;;;;;14.13;9.70;;;4.40;97.70;;;;;;5034305;28;20120;-85
2022/01/19 08:36:04;;;;;;;16.95;9.40;;;4.60;97.50;;;;;;5016406;28;20404;-84
2022/01/19 08:38:32;;;;;;;17.15;9.45;;;4.80;97.00;;;;;;5000294;28;20041;-83
2022/01/19 08:41:00;;;;;;;16.27;9.73;;;4.70;96.70;;;;;;5000641;28;20110;-83
2022/01/19 08:43:31;;;;;;;12.75;8.23;;;4.80;96.40;;;;;;5016486;28;20471;-85
2022/01/19 08:45:59;;;;;;;18.98;9.48;;;4.80;96.10;;;;;;5032796;28;20401;-83
2022/01/19 08:48:27;;;;;;;17.55;8.90;;;5.00;95.80;;;;;;5016523;28;20073;-83
2022/01/19 08:50:54;;;;;;;17.40;9.27;;;5.20;95.00;;;;;;5033661;28;20219;-84
2022/01/19 08:53:28;;;;;;;13.57;8.98;;;5.30;93.70;;;;;;5033775;28;20124;-84
2022/01/19 08:55:57;;;;;;;12.48;9.18;;;5.30;92.80;;;;;;5016046;28;20133;-85
2022/01/19 08:58:30;;;;;;;21.02;9.63;;;5.50;92.60;;;;;;5016085;28;20468;-85
2022/01/19 09:00:58;;;;;;;18.15;9.68;;;5.60;91.40;;;;;;5032517;28;20048;-84
2022/01/19 09:03:28;;;;;;;13.02;8.18;;;5.60;90.50;;;;;;5015797;28;20138;-84
2022/01/19 09:06:20;;;;;;;17.55;8.73;;;5.70;88.90;;;;;;5033508;28;20043;-84
2022/01/19 09:08:47;;;;;;;11.77;8.10;;;5.80;87.30;;;;;;5033433;28;20383;-85
2022/01/19 09:11:15;;;;;;;11.77;7.75;;;5.90;84.80;;;;;;5032040;28;20041;-86
2022/01/19 09:13:44;;;;;;;14.60;8.63;;;5.90;82.90;;;;;;5033591;28;20139;-85
2022/01/19 09:16:17;;;;;;;17.38;8.65;;;6.00;81.20;;;;;;5032441;28;20048;-83
2022/01/19 09:19:12;;;;;;;14.98;8.95;;;6.10;80.00;;;;;;5033514;28;20060;-84
2022/01/19 09:21:39;;;;;;;16.75;8.98;;;5.90;77.90;;;;;;5031934;28;20037;-85
2022/01/19 09:24:06;;;;;;;23.65;11.32;;;6.00;79.20;;;;;;5032971;28;20045;-85
2022/01/19 09:26:34;;;;;;;18.98;8.95;;;6.30;79.10;;;;;;5015401;28;20068;-85
2022/01/19 09:29:01;;;;;;;12.98;9.70;;;6.50;77.10;;;;;;5033279;28;20046;-84
2022/01/19 09:31:39;;;;;;;14.52;9.10;;;6.50;76.60;;;;;;5033023;28;20076;-84
2022/01/19 09:34:13;;;;;;;16.70;9.75;;;6.70;75.80;;;;;;5031841;28;20092;-85
2022/01/19 09:36:48;;;;;;;15.80;10.38;;;6.80;75.90;;;;;;5031588;28;20059;-83
2022/01/19 09:39:24;;;;;;;14.90;8.77;;;7.00;75.60;;;;;;5032860;28;20042;-84
2022/01/19 09:41:52;;;;;;;15.95;10.15;;;6.60;72.90;;;;;;5015804;28;20099;-84
2022/01/19 09:44:32;;;;;;;16.52;8.88;;;6.50;75.70;;;;;;5036586;28;20439;-83
2022/01/19 09:47:03;;;;;;;12.20;8.90;;;6.30;73.80;;;;;;5053062;28;20037;-83
2022/01/19 09:49:31;;;;;;;18.27;9.45;;;6.10;75.50;;;;;;5035570;28;20119;-84
2022/01/19 09:51:58;;;;;;;18.48;10.75;;;6.50;75.60;;;;;;5053191;28;20033;-83
2022/01/19 09:54:30;;;;;;;14.65;9.25;;;6.90;73.70;;;;;;5035312;28;20523;-87
2022/01/19 09:56:58;;;;;;;15.50;9.18;;;6.90;72.30;;;;;;5035118;28;20047;-83
2022/01/19 09:59:33;;;;;;;16.33;10.63;;;7.00;72.20;;;;;;5052650;28;20063;-86
2022/01/19 10:02:07;;;;;;;16.13;9.00;;;7.10;72.20;;;;;;5035202;28;20069;-85
2022/01/19 10:04:38;;;;;;;208.30;77.20;;;6.40;71.70;;;;;;5035121;28;20280;-84
2022/01/19 10:07:26;;;;;;;13.43;8.25;;;6.40;71.80;;;;;;5035034;28;20072;-83
2022/01/19 10:09:59;;;;;;;16.73;8.95;;;6.20;72.00;;;;;;5018570;28;20055;-83
2022/01/19 10:18:18;;;;;;;12.07;7.28;;;6.40;69.70;;;;;;5034089;28;20048;-86
2022/01/19 10:21:07;;;;;;;12.88;7.53;;;6.80;69.70;;;;;;5052269;28;20069;-83
2022/01/19 10:23:40;;;;;;;13.30;8.07;;;6.90;68.80;;;;;;5035371;28;20410;-86
2022/01/19 10:26:10;;;;;;;15.82;7.57;;;6.60;69.00;;;;;;5018091;28;20056;-83
2022/01/19 10:28:54;;;;;;;13.63;8.83;;;6.80;68.90;;;;;;5034057;28;20051;-84
2022/01/19 10:31:22;;;;;;;15.95;9.25;;;7.30;68.70;;;;;;5034092;28;20073;-84
2022/01/19 10:34:15;;;;;;;11.13;7.35;;;7.70;68.00;;;;;;5034033;28;20047;-83
2022/01/19 10:37:00;;;;;;;15.00;8.90;;;7.40;65.30;;;;;;5034678;28;20052;-84
2022/01/19 10:39:40;;;;;;;13.77;8.50;;;7.60;66.00;;;;;;5017752;28;20088;-84
2022/01/19 10:42:11;;;;;;;15.63;9.07;;;7.90;66.10;;;;;;5052245;28;20395;-84
2022/01/19 10:44:46;;;;;;;12.57;7.57;;;8.10;64.70;;;;;;5034518;28;20079;-84
2022/01/19 10:47:45;;;;;;;14.07;8.30;;;8.60;63.70;;;;;;5020610;28;20067;-84
2022/01/19 10:50:33;;;;;;;13.23;7.90;;;8.40;62.90;;;;;;5018284;28;20118;-82
2022/01/19 10:53:06;;;;;;;14.52;8.30;;;8.80;62.40;;;;;;5018671;28;20051;-84
2022/01/19 10:55:42;;;;;;;11.60;8.07;;;8.80;61.60;;;;;;5034464;28;20048;-84
2022/01/19 10:58:14;;;;;;;16.17;9.57;;;9.10;60.60;;;;;;5051664;28;20432;-83
2022/01/19 11:00:55;;;;;;;15.27;8.18;;;9.20;60.00;;;;;;5034401;28;20110;-82
2022/01/19 11:03:26;;;;;;;13.20;8.10;;;9.40;59.50;;;;;;5034177;28;20041;-83
2022/01/19 11:05:57;;;;;;;;;;;9.70;59.00;;;;;;5052111;28;20407;-82
2022/01/19 11:08:27;;;;;;;14.23;7.22;;;9.70;58.70;;;;;;5034212;28;20017;-84
2022/01/19 11:15:29;;;;;;;12.45;6.80;;;10.00;57.70;;;;;;4970477;28;20488;-84
2022/01/19 11:26:45;;;;;;;11.25;6.95;;;10.90;54.40;;;;;;4970145;28;20073;-84
2022/01/19 11:29:21;;;;;;;13.45;7.05;;;11.80;52.40;;;;;;4970575;28;20125;-84
2022/01/19 11:31:52;;;;;;;12.18;6.57;;;11.70;53.10;;;;;;4989613;28;20140;-85
2022/01/19 11:34:42;;;;;;;10.55;6.68;;;12.30;51.80;;;;;;5017483;28;20049;-83
2022/01/19 11:37:09;;;;;;;14.05;7.68;;;12.40;51.40;;;;;;5033349;28;20411;-83
2022/01/19 11:39:37;;;;;;;16.73;8.67;;;11.60;52.10;;;;;;5053448;28;20506;-84
2022/01/19 11:42:07;;;;;;;13.95;7.20;;;10.50;53.70;;;;;;5021130;28;20045;-85
2022/01/19 11:44:35;;;;;;;17.83;8.75;;;11.00;53.40;;;;;;5037005;28;20524;-85
2022/01/19 11:47:08;;;;;;;11.95;7.93;;;10.60;52.90;;;;;;5037562;28;20037;-85
2022/01/19 11:49:44;;;;;;;12.80;7.93;;;9.90;55.40;;;;;;5037249;28;20063;-85
2022/01/19 11:52:15;;;;;;;14.68;7.55;;;9.90;55.20;;;;;;5054930;28;20397;-83
2022/01/19 11:54:43;;;;;;;17.00;9.23;;;10.00;55.00;;;;;;5054927;28;20436;-84
2022/01/19 11:57:15;;;;;;;15.40;8.25;;;10.10;54.60;;;;;;5054340;28;20442;-84
2022/01/19 11:59:48;;;;;;;13.48;8.15;;;10.10;54.20;;;;;;5020419;28;20190;-84
2022/01/19 12:02:24;;;;;;;14.38;8.38;;;10.30;54.70;;;;;;5020263;28;20059;-83
2022/01/19 12:05:19;;;;;;;13.18;7.70;;;10.10;54.20;;;;;;5054615;28;20127;-82
2022/01/19 12:08:03;;;;;;;18.27;8.48;;;9.90;54.80;;;;;;5054510;28;20037;-84
2022/01/19 12:10:32;;;;;;;14.35;8.27;;;9.90;54.80;;;;;;5037059;28;20508;-83
2022/01/19 12:16:30;;;;;;;17.08;8.00;;;10.20;54.30;;;;;;5054614;28;20049;-82
2022/01/19 12:19:07;;;;;;;16.38;7.72;;;10.40;53.70;;;;;;5020530;28;20037;-82
2022/01/19 12:21:36;;;;;;;11.93;7.28;;;10.10;54.50;;;;;;5054017;28;20047;-82
2022/01/19 12:24:29;;;;;;;11.90;7.78;;;10.60;53.90;;;;;;5039250;28;20045;-84
2022/01/19 12:27:07;;;;;;;13.02;7.60;;;10.60;53.70;;;;;;5036040;28;20056;-83
2022/01/19 12:29:38;;;;;;;14.20;7.38;;;10.70;53.80;;;;;;5019871;28;20136;-84
2022/01/19 12:32:28;;;;;;;13.10;7.32;;;10.90;52.80;;;;;;5053792;28;20129;-84
2022/01/19 12:35:14;;;;;;;12.50;7.18;;;11.10;51.90;;;;;;5003671;28;20053;-84
2022/01/19 12:37:46;;;;;;;13.70;8.13;;;11.10;52.30;;;;;;5054086;28;20108;-84
2022/01/19 12:40:19;;;;;;;13.43;7.90;;;10.30;53.50;;;;;;5019416;28;20401;-84
2022/01/19 12:42:51;;;;;;;15.43;6.75;;;10.80;53.10;;;;;;5053978;28;20393;-85
2022/01/19 12:45:21;;;;;;;;;;;11.50;52.30;;;;;;5054188;28;20041;-83
2022/01/19 12:48:12;;;;;;;19.00;7.80;;;11.50;52.00;;;;;;5036467;28;20003;-83
2022/01/19 12:50:45;;;;;;;11.15;6.88;;;11.30;52.10;;;;;;4990048;28;20076;-84
2022/01/19 12:53:24;;;;;;;14.18;7.55;;;10.80;52.80;;;;;;5019593;28;20056;-84
2022/01/19 12:55:59;;;;;;;10.68;6.90;;;11.10;52.00;;;;;;5035706;28;20497;-84
2022/01/19 12:58:31;;;;;;;13.10;6.43;;;11.60;51.20;;;;;;5053413;28;20083;-83
2022/01/19 13:01:11;;;;;;;15.25;6.43;;;11.20;51.70;;;;;;5036689;28;20049;-84
2022/01/19 13:03:44;;;;;;;11.32;6.43;;;11.20;51.80;;;;;;5036344;28;20091;-84
2022/01/19 13:06:18;;;;;;;11.45;5.85;;;11.50;51.50;;;;;;5035594;28;20397;-83
2022/01/19 13:08:57;;;;;;;11.80;6.05;;;11.30;51.00;;;;;;5053021;28;20138;-84
2022/01/19 13:11:37;;;;;;;11.52;5.75;;;11.30;50.50;;;;;;5035804;28;20136;-82
2022/01/19 13:14:07;;;;;;;9.32;5.85;;;11.60;49.70;;;;;;5015619;28;20057;-82
2022/01/19 13:16:38;;;;;;;11.30;6.20;;;12.00;49.80;;;;;;5033222;28;20124;-83
2022/01/19 13:19:15;;;;;;;14.77;6.20;;;11.70;50.50;;;;;;5031724;28;20045;-84
2022/01/19 13:21:47;;;;;;;12.63;6.13;;;11.50;50.00;;;;;;5032044;28;20119;-85
2022/01/19 13:24:26;;;;;;;11.60;6.25;;;12.40;48.80;;;;;;5032858;28;20041;-83
2022/01/19 13:26:59;;;;;;;11.43;6.90;;;12.50;48.40;;;;;;5031745;28;20052;-84
2022/01/19 13:29:31;;;;;;;12.13;6.28;;;12.40;48.10;;;;;;5032805;28;20041;-84
2022/01/19 13:32:08;;;;;;;13.18;6.50;;;12.90;48.00;;;;;;5015199;28;20567;-84
2022/01/19 13:34:59;;;;;;;12.10;6.45;;;13.60;46.80;;;;;;5031533;28;20060;-84
2022/01/19 13:37:42;;;;;;;12.82;6.47;;;12.70;47.30;;;;;;5015497;28;20053;-84
2022/01/19 13:40:12;;;;;;;15.93;7.75;;;12.70;47.80;;;;;;5052525;28;20048;-83
2022/01/19 13:42:48;;;;;;;11.57;6.38;;;12.20;48.50;;;;;;5052998;28;20037;-84
2022/01/19 13:48:31;;;;;;;13.63;6.57;;;12.60;47.80;;;;;;5040871;28;20467;-84
2022/01/19 13:51:09;;;;;;;11.60;6.30;;;12.90;47.00;;;;;;5035092;28;20048;-83
2022/01/19 13:53:58;;;;;;;13.85;6.65;;;12.20;48.20;;;;;;5052584;28;20151;-81
2022/01/19 13:56:39;;;;;;;12.27;6.60;;;12.10;48.10;;;;;;5032611;28;20403;-84
2022/01/19 13:59:16;;;;;;;13.65;6.57;;;12.20;48.20;;;;;;5034655;28;20033;-83
2022/01/19 14:04:20;;;;;;;13.57;6.93;;;12.20;48.20;;;;;;5034422;28;20048;-83
2022/01/19 14:06:49;;;;;;;13.10;6.57;;;12.20;48.40;;;;;;5052268;28;20112;-82
2022/01/19 14:09:17;;;;;;;15.43;6.70;;;12.20;48.60;;;;;;5034767;28;20116;-85
2022/01/19 14:12:01;;;;;;;11.10;6.47;;;12.20;48.20;;;;;;5034212;28;20112;-83
2022/01/19 14:14:35;;;;;;;9.70;5.78;;;11.80;48.90;;;;;;5033973;28;20057;-85
2022/01/19 14:17:06;;;;;;;11.48;6.25;;;11.70;49.50;;;;;;5051922;28;20235;-84
2022/01/19 14:19:41;;;;;;;;;;;11.90;49.50;;;;;;5052411;28;20124;-85
2022/01/19 14:22:08;;;;;;;14.00;7.18;;;11.80;49.80;;;;;;5034427;28;19963;-83
2022/01/19 14:24:44;;;;;;;14.30;7.22;;;11.50;50.30;;;;;;5018035;28;20114;-83
2022/01/19 14:27:33;;;;;;;12.55;7.05;;;11.40;50.60;;;;;;5052000;28;20400;-83
2022/01/19 14:30:04;;;;;;;13.98;7.00;;;11.10;50.90;;;;;;5052008;28;20045;-84
2022/01/19 14:32:37;;;;;;;14.63;7.10;;;11.10;51.10;;;;;;5034407;28;20422;-84
2022/01/19 14:35:38;;;;;;;9.77;6.65;;;11.10;51.10;;;;;;5033854;28;20045;-83
2022/01/19 14:38:19;;;;;;;12.55;7.40;;;10.70;51.90;;;;;;4986780;28;20051;-85
2022/01/19 14:40:58;;;;;;;13.80;7.50;;;10.30;52.30;;;;;;5051632;28;20041;-84
2022/01/19 14:43:40;;;;;;;12.57;7.00;;;10.20;52.80;;;;;;5017274;28;20170;-83
2022/01/19 14:46:12;;;;;;;13.73;7.68;;;10.40;52.50;;;;;;5033709;28;20041;-84
2022/01/19 14:48:43;;;;;;;12.75;7.45;;;10.10;52.80;;;;;;5033674;28;20049;-85
2022/01/19 14:51:28;;;;;;;12.48;7.18;;;9.90;53.20;;;;;;5051587;28;20429;-83
2022/01/19 14:54:08;;;;;;;14.93;7.15;;;9.30;53.60;;;;;;5033820;28;20056;-84
2022/01/19 14:56:36;;;;;;;12.45;7.18;;;9.00;54.70;;;;;;5033833;28;20045;-84
2022/01/19 14:59:10;;;;;;;15.00;7.53;;;8.80;55.40;;;;;;5051720;28;20122;-85
2022/01/19 15:01:43;;;;;;;13.02;7.43;;;8.50;56.00;;;;;;5017848;28;20051;-84
2022/01/19 15:04:12;;;;;;;18.27;8.57;;;8.10;56.70;;;;;;5034107;28;20037;-83
2022/01/19 15:06:40;;;;;;;15.77;9.32;;;7.80;57.30;;;;;;5033532;28;20392;-83
2022/01/19 15:09:11;;;;;;;13.80;9.18;;;7.80;57.80;;;;;;5033943;28;20083;-84
2022/01/19 15:11:40;;;;;;;239.88;145.35;;;7.80;58.00;;;;;;5017329;28;20059;-83
2022/01/19 15:14:09;;;;;;;14.77;9.05;;;7.60;57.90;;;;;;5053671;28;20052;-84
2022/01/19 15:16:37;;;;;;;14.25;9.93;;;7.60;58.30;;;;;;5021715;28;20139;-84
2022/01/19 15:19:04;;;;;;;14.55;8.88;;;7.30;59.00;;;;;;5037731;28;20041;-85
2022/01/19 15:21:35;;;;;;;18.60;10.15;;;7.30;58.80;;;;;;5037634;28;20048;-85
2022/01/19 15:24:05;;;;;;;16.67;9.20;;;7.00;59.20;;;;;;5037820;28;20049;-84
2022/01/19 15:26:39;;;;;;;17.63;9.38;;;7.20;59.30;;;;;;5037455;28;20152;-84
2022/01/19 15:29:08;;;;;;;15.93;8.85;;;7.20;59.20;;;;;;5037453;28;20041;-85
2022/01/19 15:31:35;;;;;;;12.93;8.80;;;7.20;59.20;;;;;;5055363;28;20051;-84
2022/01/19 15:34:03;;;;;;;18.10;9.32;;;7.00;59.40;;;;;;5037629;28;20132;-85
2022/01/19 15:36:31;;;;;;;16.92;9.15;;;6.70;59.80;;;;;;5055210;28;20045;-85
2022/01/19 15:38:59;;;;;;;13.60;9.13;;;6.70;60.30;;;;;;5037428;28;20059;-85
2022/01/19 15:41:26;;;;;;;16.67;9.20;;;6.70;60.30;;;;;;5037087;28;20116;-85